createdAt,value
2023-05-04T00:02:10.460Z,10.40
2023-05-04T00:04:37.610Z,5.20
2023-05-04T00:07:04.510Z,9.32
2023-05-04T00:09:31.951Z,8.32
2023-05-04T00:11:59.060Z,7.82
2023-05-04T00:14:26.014Z,7.38
2023-05-04T00:16:52.862Z,8.00
2023-05-04T00:19:19.775Z,8.23
2023-05-04T00:21:47.191Z,8.70
2023-05-04T00:24:14.164Z,7.00
2023-05-04T00:26:41.220Z,9.02
2023-05-04T00:29:10.730Z,6.82
2023-05-04T00:31:37.705Z,10.23
2023-05-04T00:34:04.618Z,11.05
2023-05-04T00:36:31.538Z,8.10
2023-05-04T00:38:58.474Z,7.65
2023-05-04T00:41:25.451Z,8.40
2023-05-04T00:43:52.504Z,8.27
2023-05-04T00:46:20.027Z,9.88
2023-05-04T00:48:49.911Z,7.13
2023-05-04T00:51:20.688Z,9.75
2023-05-04T00:53:48.901Z,10.52
2023-05-04T00:56:16.991Z,12.52
2023-05-04T00:58:44.063Z,10.02
2023-05-04T01:01:11.515Z,6.20
2023-05-04T01:03:41.762Z,7.80
2023-05-04T01:06:56.273Z,8.23
2023-05-04T01:09:47.084Z,7.68
2023-05-04T01:12:29.935Z,8.63
2023-05-04T01:14:58.628Z,9.38
2023-05-04T01:17:25.653Z,9.93
2023-05-04T01:19:54.042Z,10.35
2023-05-04T01:22:21.904Z,11.73
2023-05-04T01:24:50.608Z,7.80
2023-05-04T01:27:38.322Z,9.73
2023-05-04T01:30:29.731Z,7.57
2023-05-04T01:33:01.115Z,11.07
2023-05-04T01:35:29.301Z,7.15
2023-05-04T01:37:56.954Z,5.25
2023-05-04T01:40:24.059Z,7.07
2023-05-04T01:42:51.411Z,8.88
2023-05-04T01:45:18.589Z,6.88
2023-05-04T01:47:45.851Z,8.77
2023-05-04T01:50:13.066Z,9.48
2023-05-04T01:52:40.067Z,9.10
2023-05-04T01:55:07.288Z,11.50
2023-05-04T01:57:34.206Z,8.98
2023-05-04T02:00:01.318Z,5.72
2023-05-04T02:02:28.230Z,12.80
2023-05-04T02:04:55.232Z,9.95
2023-05-04T02:07:22.147Z,7.32
2023-05-04T02:09:49.029Z,11.98
2023-05-04T02:12:16.014Z,9.55
2023-05-04T02:14:43.032Z,13.18
2023-05-04T02:17:10.224Z,6.40
2023-05-04T02:19:37.533Z,5.15
2023-05-04T02:22:04.570Z,6.75
2023-05-04T02:24:31.742Z,7.78
2023-05-04T02:26:58.703Z,7.03
2023-05-04T02:29:26.272Z,8.43
2023-05-04T02:31:53.536Z,5.93
2023-05-04T02:34:20.797Z,9.82
2023-05-04T02:36:47.688Z,10.10
2023-05-04T02:39:14.829Z,10.23
2023-05-04T02:41:41.904Z,6.82
2023-05-04T02:44:08.837Z,10.45
2023-05-04T02:46:35.709Z,8.35
2023-05-04T02:49:02.846Z,8.38
2023-05-04T02:51:32.355Z,9.68
2023-05-04T02:53:59.290Z,8.20
2023-05-04T02:56:26.554Z,6.00
2023-05-04T02:58:53.415Z,7.13
2023-05-04T03:01:20.454Z,9.05
2023-05-04T03:03:47.572Z,9.50
2023-05-04T03:06:14.616Z,10.50
2023-05-04T03:08:41.461Z,7.68
2023-05-04T03:11:08.327Z,15.13
2023-05-04T03:13:35.317Z,10.82
2023-05-04T03:16:02.735Z,7.80
2023-05-04T03:18:29.869Z,9.55
2023-05-04T03:20:57.463Z,20.10
2023-05-04T03:23:24.538Z,12.27
2023-05-04T03:25:51.417Z,9.55
2023-05-04T03:28:19.131Z,12.90
2023-05-04T03:30:46.094Z,12.02
2023-05-04T03:33:14.545Z,7.07
2023-05-04T03:35:42.205Z,7.25
2023-05-04T03:38:11.304Z,9.02
2023-05-04T03:40:38.212Z,5.72
2023-05-04T03:43:05.176Z,11.50
2023-05-04T03:45:32.068Z,7.57
2023-05-04T03:47:59.035Z,7.75
2023-05-04T03:50:27.324Z,12.13
2023-05-04T03:52:54.219Z,10.20
2023-05-04T03:55:23.787Z,11.77
2023-05-04T03:57:51.446Z,10.88
2023-05-04T04:00:19.170Z,10.82
2023-05-04T04:02:54.079Z,10.50
2023-05-04T04:05:21.129Z,9.52
2023-05-04T04:07:50.329Z,6.47
2023-05-04T04:10:17.211Z,12.57
2023-05-04T04:12:44.165Z,9.98
2023-05-04T04:15:11.732Z,12.57
2023-05-04T04:17:38.681Z,9.73
2023-05-04T04:20:06.807Z,7.20
2023-05-04T04:22:34.020Z,9.68
2023-05-04T04:25:01.138Z,6.70
2023-05-04T04:27:28.176Z,8.88
2023-05-04T04:29:55.153Z,10.40
2023-05-04T04:32:22.653Z,12.77
2023-05-04T04:34:50.127Z,7.57
2023-05-04T04:37:16.965Z,7.63
2023-05-04T04:39:43.933Z,10.98
2023-05-04T04:42:11.608Z,9.18
2023-05-04T04:44:39.348Z,11.55
2023-05-04T04:47:06.550Z,9.38
2023-05-04T04:49:33.472Z,7.82
2023-05-04T04:52:02.090Z,9.13
2023-05-04T04:54:29.216Z,9.50
2023-05-04T04:56:57.368Z,9.15
2023-05-04T04:59:24.860Z,7.43
2023-05-04T05:01:51.820Z,6.60
2023-05-04T05:04:19.636Z,10.07
2023-05-04T05:06:46.891Z,11.45
2023-05-04T05:09:14.239Z,7.90
2023-05-04T05:11:41.150Z,11.00
2023-05-04T05:14:10.453Z,9.90
2023-05-04T05:16:37.455Z,12.82
2023-05-04T05:19:04.433Z,10.13
2023-05-04T05:21:31.288Z,10.15
2023-05-04T05:23:58.164Z,8.65
2023-05-04T05:26:25.272Z,8.68
2023-05-04T05:28:52.181Z,10.85
2023-05-04T05:31:19.178Z,13.38
2023-05-04T05:33:46.061Z,12.90
2023-05-04T05:36:14.410Z,15.82
2023-05-04T05:38:41.288Z,8.77
2023-05-04T05:41:09.612Z,15.85
2023-05-04T05:43:38.555Z,13.02
2023-05-04T05:46:07.363Z,10.52
2023-05-04T05:48:34.461Z,10.15
2023-05-04T05:51:01.502Z,9.68
2023-05-04T05:53:28.509Z,9.20
2023-05-04T05:55:55.500Z,15.95
2023-05-04T05:58:22.981Z,8.52
2023-05-04T06:00:49.971Z,9.50
2023-05-04T06:03:17.019Z,11.00
2023-05-04T06:05:59.186Z,12.15
2023-05-04T06:08:34.184Z,9.13
2023-05-04T06:11:01.230Z,12.43
2023-05-04T06:13:28.279Z,13.82
2023-05-04T06:15:58.307Z,14.57
2023-05-04T06:18:25.528Z,16.58
2023-05-04T06:20:59.470Z,9.77
2023-05-04T06:23:29.559Z,16.77
2023-05-04T06:25:56.492Z,10.30
2023-05-04T06:28:23.388Z,13.15
2023-05-04T06:30:50.772Z,7.78
2023-05-04T06:33:17.786Z,7.90
2023-05-04T06:35:45.513Z,8.98
2023-05-04T06:38:12.427Z,13.23
2023-05-04T06:40:39.352Z,12.35
2023-05-04T06:43:06.648Z,10.02
2023-05-04T06:45:37.380Z,9.68
2023-05-04T06:48:04.779Z,10.23
2023-05-04T06:50:33.370Z,9.00
2023-05-04T06:53:07.731Z,9.90
2023-05-04T06:55:37.025Z,10.23
2023-05-04T06:58:04.909Z,10.35
2023-05-04T07:00:32.106Z,14.48
2023-05-04T07:02:58.974Z,14.60
2023-05-04T07:05:26.292Z,9.63
2023-05-04T07:07:53.356Z,8.57
2023-05-04T07:10:20.398Z,20.40
2023-05-04T07:12:47.385Z,13.23
2023-05-04T07:15:14.432Z,15.27
2023-05-04T07:17:41.649Z,9.95
2023-05-04T07:20:09.539Z,10.63
2023-05-04T07:22:36.590Z,15.95
2023-05-04T07:25:04.134Z,8.68
2023-05-04T07:27:31.268Z,12.35
2023-05-04T07:29:58.257Z,12.20
2023-05-04T07:32:25.411Z,16.60
2023-05-04T07:34:52.560Z,8.30
2023-05-04T07:37:19.607Z,12.18
2023-05-04T07:39:46.420Z,10.98
2023-05-04T07:42:13.236Z,16.15
2023-05-04T07:44:41.564Z,9.07
2023-05-04T07:47:08.863Z,10.52
2023-05-04T07:49:35.847Z,11.95
2023-05-04T07:52:04.101Z,6.78
2023-05-04T07:54:31.337Z,11.15
2023-05-04T07:56:58.316Z,8.65
2023-05-04T07:59:25.328Z,11.23
2023-05-04T08:01:52.256Z,12.40
2023-05-04T08:04:19.241Z,10.70
2023-05-04T08:06:46.427Z,9.50
2023-05-04T08:09:13.681Z,7.53
2023-05-04T08:11:40.523Z,8.93
2023-05-04T08:14:07.450Z,14.40
2023-05-04T08:16:34.661Z,9.57
2023-05-04T08:19:02.111Z,10.75
2023-05-04T08:21:29.135Z,7.35
2023-05-04T08:23:56.147Z,8.80
2023-05-04T08:26:24.378Z,8.98
2023-05-04T08:28:51.414Z,9.73
2023-05-04T08:31:18.693Z,9.65
2023-05-04T08:33:48.789Z,9.82
2023-05-04T08:36:15.636Z,14.82
2023-05-04T08:38:42.561Z,11.48
2023-05-04T08:41:10.906Z,7.68
2023-05-04T08:43:38.218Z,8.77
2023-05-04T08:46:06.735Z,8.68
2023-05-04T08:48:36.941Z,12.65
2023-05-04T08:51:04.450Z,7.50
2023-05-04T08:53:32.774Z,9.13
2023-05-04T08:56:04.215Z,9.73
2023-05-04T08:58:37.757Z,15.07
2023-05-04T09:01:08.355Z,8.52
2023-05-04T09:03:36.002Z,10.73
2023-05-04T09:06:03.486Z,10.48
2023-05-04T09:08:30.838Z,9.68
2023-05-04T09:10:58.427Z,10.05
2023-05-04T09:13:25.487Z,6.70
2023-05-04T09:15:57.695Z,9.07
2023-05-04T09:18:39.130Z,8.63
2023-05-04T09:21:08.970Z,9.27
2023-05-04T09:23:51.210Z,6.50
2023-05-04T09:26:37.418Z,8.20
2023-05-04T09:29:13.554Z,10.00
2023-05-04T09:31:47.470Z,11.20
2023-05-04T09:34:15.063Z,8.77
2023-05-04T09:36:42.433Z,9.98
2023-05-04T09:39:14.122Z,7.30
2023-05-04T09:41:42.212Z,7.88
2023-05-04T09:44:24.194Z,11.02
2023-05-04T09:46:59.768Z,7.72
2023-05-04T09:49:39.009Z,9.48
2023-05-04T09:52:06.908Z,6.88
2023-05-04T09:54:36.471Z,7.15
2023-05-04T09:57:18.027Z,10.57
2023-05-04T09:59:45.537Z,10.88
2023-05-04T10:02:22.872Z,12.77
2023-05-04T10:04:52.331Z,11.88
2023-05-04T10:07:20.849Z,7.60
2023-05-04T10:09:49.822Z,7.18
2023-05-04T10:12:17.067Z,10.13
2023-05-04T10:14:46.814Z,9.85
2023-05-04T10:17:39.983Z,10.98
2023-05-04T10:20:44.266Z,9.88
2023-05-04T10:23:46.825Z,7.28
2023-05-04T10:26:55.305Z,9.40
2023-05-04T10:29:33.183Z,9.57
2023-05-04T10:32:00.851Z,10.73
2023-05-04T10:34:32.751Z,7.32
2023-05-04T10:37:02.068Z,6.28
2023-05-04T10:39:33.998Z,6.45
2023-05-04T10:42:06.583Z,10.05
2023-05-04T10:44:54.978Z,5.57
2023-05-04T10:47:57.699Z,6.03
2023-05-04T10:50:24.628Z,7.25
2023-05-04T10:52:57.645Z,4.97
2023-05-04T10:55:26.388Z,5.60
2023-05-04T10:57:56.431Z,5.32
2023-05-04T11:00:37.172Z,7.65
2023-05-04T11:03:05.952Z,7.10
2023-05-04T11:05:48.381Z,4.35
2023-05-04T11:08:17.991Z,7.22
2023-05-04T11:10:47.346Z,5.72
2023-05-04T11:13:18.112Z,4.38
2023-05-04T11:15:47.617Z,4.40
2023-05-04T11:18:15.083Z,6.20
2023-05-04T11:20:42.813Z,5.35
2023-05-04T11:23:10.192Z,3.92
2023-05-04T11:25:37.987Z,4.43
2023-05-04T11:28:05.306Z,5.93
2023-05-04T11:30:34.810Z,3.60
2023-05-04T11:33:12.319Z,3.90
2023-05-04T11:35:40.497Z,3.22
2023-05-04T11:38:07.666Z,4.90
2023-05-04T11:40:37.521Z,3.55
2023-05-04T11:43:04.816Z,3.13
2023-05-04T11:45:36.363Z,6.65
2023-05-04T11:48:05.129Z,4.65
2023-05-04T11:50:32.437Z,5.90
2023-05-04T11:53:10.509Z,3.85
2023-05-04T11:55:38.097Z,4.07
2023-05-04T11:58:11.070Z,5.95
2023-05-04T12:00:47.045Z,4.22
2023-05-04T12:03:35.904Z,2.50
2023-05-04T12:06:10.749Z,3.70
2023-05-04T12:08:44.469Z,2.30
2023-05-04T12:11:25.271Z,5.30
2023-05-04T12:14:05.171Z,3.28
2023-05-04T12:16:33.102Z,4.18
2023-05-04T12:19:10.755Z,2.95
2023-05-04T12:21:58.406Z,2.95
2023-05-04T12:24:27.589Z,3.97
2023-05-04T12:26:54.563Z,9.00
2023-05-04T12:29:21.514Z,4.10
2023-05-04T12:31:48.449Z,3.50
2023-05-04T12:34:15.474Z,5.65
2023-05-04T12:36:42.298Z,3.58
2023-05-04T12:39:09.295Z,2.30
2023-05-04T12:41:36.128Z,5.93
2023-05-04T12:44:02.961Z,3.33
2023-05-04T12:46:30.072Z,6.28
2023-05-04T12:48:58.573Z,2.60
2023-05-04T12:51:25.642Z,4.32
2023-05-04T12:53:52.577Z,5.53
2023-05-04T12:56:19.663Z,4.60
2023-05-04T12:58:46.651Z,4.15
2023-05-04T13:01:13.841Z,4.18
2023-05-04T13:03:41.123Z,5.10
2023-05-04T13:06:08.857Z,3.17
2023-05-04T13:08:36.218Z,5.45
2023-05-04T13:11:03.234Z,3.22
2023-05-04T13:13:30.761Z,3.63
2023-05-04T13:16:00.655Z,3.75
2023-05-04T13:18:28.169Z,2.80
2023-05-04T13:20:56.280Z,3.15
2023-05-04T13:23:24.236Z,3.00
2023-05-04T13:25:52.148Z,4.55
2023-05-04T13:28:19.775Z,2.65
2023-05-04T13:30:46.952Z,5.90
2023-05-04T13:33:27.916Z,6.93
2023-05-04T13:35:58.867Z,5.25
2023-05-04T13:38:26.200Z,3.75
2023-05-04T13:40:54.058Z,5.10
2023-05-04T13:43:22.079Z,3.03
2023-05-04T13:45:48.980Z,4.28
2023-05-04T13:48:15.878Z,4.50
2023-05-04T13:50:42.891Z,3.67
2023-05-04T13:53:13.541Z,2.60
2023-05-04T13:55:41.368Z,5.55
2023-05-04T13:58:08.490Z,2.67
2023-05-04T14:00:35.803Z,5.28
2023-05-04T14:03:03.331Z,5.07
2023-05-04T14:05:30.695Z,3.20
2023-05-04T14:07:57.639Z,4.35
2023-05-04T14:10:24.801Z,3.90
2023-05-04T14:12:52.034Z,2.40
2023-05-04T14:15:22.669Z,4.65
2023-05-04T14:17:50.726Z,2.33
2023-05-04T14:20:18.275Z,4.40
2023-05-04T14:22:45.537Z,3.00
2023-05-04T14:25:13.321Z,3.05
2023-05-04T14:27:45.181Z,4.32
2023-05-04T14:30:16.814Z,2.10
2023-05-04T14:32:43.941Z,2.83
2023-05-04T14:35:12.671Z,4.13
2023-05-04T14:37:40.630Z,4.40
2023-05-04T14:40:12.983Z,5.50
2023-05-04T14:42:40.947Z,2.42
2023-05-04T14:45:09.698Z,2.97
2023-05-04T14:47:37.478Z,2.80
2023-05-04T14:50:07.394Z,3.58
2023-05-04T14:52:35.727Z,3.03
2023-05-04T14:55:07.103Z,4.47
2023-05-04T14:57:35.134Z,2.95
2023-05-04T15:00:08.020Z,3.67
2023-05-04T15:02:36.161Z,7.45
2023-05-04T15:05:03.389Z,1.98
2023-05-04T15:07:30.782Z,1.80
2023-05-04T15:09:57.859Z,3.00
2023-05-04T15:12:26.281Z,3.92
2023-05-04T15:14:54.170Z,1.80
2023-05-04T15:17:21.252Z,3.25
2023-05-04T15:19:48.481Z,3.92
2023-05-04T15:22:15.498Z,3.28
2023-05-04T15:24:43.520Z,2.20
2023-05-04T15:27:10.402Z,3.33
2023-05-04T15:29:37.252Z,2.75
2023-05-04T15:32:04.573Z,2.83
2023-05-04T15:34:31.628Z,2.05
2023-05-04T15:36:58.500Z,3.97
2023-05-04T15:39:26.955Z,2.78
2023-05-04T15:41:56.876Z,3.25
2023-05-04T15:44:24.238Z,3.85
2023-05-04T15:46:51.192Z,4.10
2023-05-04T15:49:19.162Z,3.15
2023-05-04T15:51:45.959Z,1.65
2023-05-04T15:54:13.349Z,2.63
2023-05-04T15:56:40.591Z,3.08
2023-05-04T15:59:07.700Z,2.70
2023-05-04T16:01:34.620Z,6.43
2023-05-04T16:04:02.109Z,3.20
2023-05-04T16:06:29.509Z,3.35
2023-05-04T16:09:09.977Z,3.35
2023-05-04T16:11:37.538Z,2.08
2023-05-04T16:14:05.232Z,2.30
2023-05-04T16:16:32.418Z,2.55
2023-05-04T16:18:59.305Z,1.63
2023-05-04T16:21:26.149Z,6.13
2023-05-04T16:23:53.037Z,2.38
2023-05-04T16:26:20.017Z,2.10
2023-05-04T16:28:46.934Z,3.40
2023-05-04T16:31:15.085Z,3.47
2023-05-04T16:33:47.184Z,2.88
2023-05-04T16:36:14.882Z,3.17
2023-05-04T16:38:41.874Z,3.47
2023-05-04T16:41:08.679Z,4.22
2023-05-04T16:43:35.596Z,2.58
2023-05-04T16:46:02.736Z,3.28
2023-05-04T16:48:31.005Z,2.45
2023-05-04T16:50:57.923Z,3.53
2023-05-04T16:53:25.527Z,4.07
2023-05-04T16:55:52.549Z,1.63
2023-05-04T16:58:19.430Z,4.00
2023-05-04T17:00:46.372Z,4.07
2023-05-04T17:03:13.562Z,3.65
2023-05-04T17:05:40.677Z,2.55
2023-05-04T17:08:07.652Z,2.78
2023-05-04T17:10:34.588Z,6.28
2023-05-04T17:13:02.505Z,5.10
2023-05-04T17:15:30.099Z,2.58
2023-05-04T17:17:57.172Z,4.82
2023-05-04T17:20:28.674Z,3.22
2023-05-04T17:22:58.586Z,7.10
2023-05-04T17:25:27.079Z,5.10
2023-05-04T17:27:54.820Z,5.22
2023-05-04T17:30:22.148Z,4.20
2023-05-04T17:32:51.971Z,4.40
2023-05-04T17:35:25.693Z,4.65
2023-05-04T17:37:58.849Z,3.95
2023-05-04T17:40:28.922Z,2.45
2023-05-04T17:42:57.232Z,4.38
2023-05-04T17:45:34.130Z,2.65
2023-05-04T17:48:07.579Z,5.97
2023-05-04T17:50:46.794Z,4.80
2023-05-04T17:53:18.445Z,3.63
2023-05-04T17:55:53.598Z,2.75
2023-05-04T17:58:28.817Z,3.75
2023-05-04T18:01:10.798Z,3.78
2023-05-04T18:03:42.273Z,2.33
2023-05-04T18:06:20.621Z,5.78
2023-05-04T18:08:54.930Z,6.68
2023-05-04T18:11:26.777Z,5.63
2023-05-04T18:13:59.073Z,2.80
2023-05-04T18:16:27.505Z,3.17
2023-05-04T18:18:58.428Z,4.90
2023-05-04T18:21:26.242Z,2.45
2023-05-04T18:23:54.110Z,1.88
2023-05-04T18:26:22.750Z,5.30
2023-05-04T18:28:51.057Z,6.10
2023-05-04T18:31:18.968Z,4.43
2023-05-04T18:33:46.066Z,6.20
2023-05-04T18:36:13.070Z,2.85
2023-05-04T18:38:41.020Z,5.85
2023-05-04T18:41:08.318Z,6.30
2023-05-04T18:43:35.655Z,6.45
2023-05-04T18:46:09.112Z,6.03
2023-05-04T18:48:36.379Z,6.57
2023-05-04T18:51:03.556Z,9.00
2023-05-04T18:53:31.211Z,4.38
2023-05-04T18:56:07.634Z,5.47
2023-05-04T18:58:38.197Z,6.45
2023-05-04T19:01:07.052Z,9.50
2023-05-04T19:03:34.408Z,6.35
2023-05-04T19:06:01.998Z,6.35
2023-05-04T19:08:29.419Z,4.97
2023-05-04T19:11:00.677Z,5.72
2023-05-04T19:13:28.892Z,3.88
2023-05-04T19:15:56.566Z,7.60
2023-05-04T19:18:25.784Z,8.27
2023-05-04T19:20:54.935Z,6.32
2023-05-04T19:23:23.303Z,4.60
2023-05-04T19:25:51.945Z,7.80
2023-05-04T19:28:20.214Z,5.28
2023-05-04T19:30:49.814Z,4.00
2023-05-04T19:33:19.552Z,7.78
2023-05-04T19:35:48.680Z,5.63
2023-05-04T19:38:19.352Z,6.13
2023-05-04T19:40:52.501Z,5.50
2023-05-04T19:43:24.484Z,6.53
2023-05-04T19:45:55.798Z,6.13
2023-05-04T19:48:30.453Z,6.38
2023-05-04T19:51:00.818Z,5.45
2023-05-04T19:53:32.077Z,7.15
2023-05-04T19:56:05.611Z,5.35
2023-05-04T19:58:40.330Z,4.18
2023-05-04T20:01:24.022Z,5.10
2023-05-04T20:04:02.306Z,4.25
2023-05-04T20:06:39.468Z,7.07
2023-05-04T20:09:15.750Z,7.57
2023-05-04T20:11:51.377Z,5.35
2023-05-04T20:14:28.105Z,4.72
2023-05-04T20:17:02.897Z,4.40
2023-05-04T20:19:40.610Z,4.60
2023-05-04T20:22:16.198Z,6.03
2023-05-04T20:24:52.097Z,6.05
2023-05-04T20:27:26.722Z,8.63
2023-05-04T20:30:01.508Z,6.22
2023-05-04T20:32:37.238Z,5.93
2023-05-04T20:35:11.826Z,6.57
2023-05-04T20:37:43.541Z,5.38
2023-05-04T20:40:19.090Z,6.63
2023-05-04T20:42:51.579Z,3.33
2023-05-04T20:45:26.023Z,9.60
2023-05-04T20:48:04.152Z,5.67
2023-05-04T20:50:36.869Z,5.45
2023-05-04T20:53:14.502Z,6.05
2023-05-04T20:55:48.200Z,5.07
2023-05-04T20:58:20.509Z,6.15
2023-05-04T21:00:52.939Z,6.47
2023-05-04T21:03:23.891Z,6.13
2023-05-04T21:05:54.767Z,5.00
2023-05-04T21:08:27.226Z,6.05
2023-05-04T21:11:01.479Z,4.38
2023-05-04T21:16:06.595Z,4.63
2023-05-04T21:18:37.546Z,4.25
2023-05-04T21:21:11.363Z,4.70
2023-05-04T21:23:41.821Z,5.90
2023-05-04T21:26:10.401Z,10.30
2023-05-04T21:28:40.960Z,6.20
2023-05-04T21:31:10.054Z,4.47
2023-05-04T21:33:38.938Z,3.88
2023-05-04T21:36:17.130Z,4.82
2023-05-04T21:38:47.318Z,6.40
2023-05-04T21:41:18.918Z,5.38
2023-05-04T21:43:49.070Z,7.95
2023-05-04T21:46:18.234Z,6.18
2023-05-04T21:48:47.837Z,4.00
2023-05-04T21:51:18.753Z,6.20
2023-05-04T21:53:49.129Z,8.05
2023-05-04T21:56:18.564Z,4.28
2023-05-04T21:58:47.270Z,9.68
2023-05-04T22:01:18.493Z,4.18
2023-05-04T22:03:47.262Z,6.10
2023-05-04T22:06:15.741Z,4.78
2023-05-04T22:08:43.079Z,4.72
2023-05-04T22:11:12.152Z,5.32
2023-05-04T22:13:39.696Z,4.95
2023-05-04T22:16:09.681Z,4.10
2023-05-04T22:18:37.494Z,5.97
2023-05-04T22:21:05.207Z,4.93
2023-05-04T22:23:33.217Z,4.43
2023-05-04T22:26:01.834Z,5.20
2023-05-04T22:28:29.370Z,6.05
2023-05-04T22:30:56.613Z,3.97
2023-05-04T22:33:25.164Z,7.18
2023-05-04T22:35:52.787Z,6.05
2023-05-04T22:38:19.916Z,6.13
2023-05-04T22:40:50.294Z,5.20
2023-05-04T22:43:17.508Z,5.15
2023-05-04T22:45:44.484Z,3.42
2023-05-04T22:48:14.992Z,5.00
2023-05-04T22:50:42.281Z,6.63
2023-05-04T22:53:10.397Z,5.18
2023-05-04T22:55:37.821Z,7.13
2023-05-04T22:58:04.765Z,5.00
2023-05-04T23:00:33.596Z,4.32
2023-05-04T23:03:01.074Z,5.38
2023-05-04T23:05:28.076Z,4.70
2023-05-04T23:07:55.008Z,5.65
2023-05-04T23:10:22.819Z,4.93
2023-05-04T23:12:50.041Z,3.53
2023-05-04T23:15:19.790Z,4.60
2023-05-04T23:17:46.826Z,4.95
2023-05-04T23:20:13.911Z,4.13
2023-05-04T23:22:40.866Z,5.03
2023-05-04T23:25:08.247Z,5.38
2023-05-04T23:27:35.212Z,6.05
2023-05-04T23:30:02.263Z,4.63
2023-05-04T23:32:29.255Z,5.20
2023-05-04T23:34:56.186Z,4.00
2023-05-04T23:37:23.291Z,5.43
2023-05-04T23:39:52.116Z,3.83
2023-05-04T23:42:18.914Z,4.65
2023-05-04T23:44:45.853Z,5.55
2023-05-04T23:47:12.729Z,6.10
2023-05-04T23:49:39.726Z,4.38
2023-05-04T23:52:06.808Z,8.07
2023-05-04T23:54:33.719Z,4.72
2023-05-04T23:57:00.529Z,6.40
2023-05-04T23:59:27.410Z,7.55
